Time;durP1;ratioP1;P1;durP2;ratioP2;P2;SDS_P1;SDS_P2;PMS_P1;PMS_P2;Temp;Humidity;BMP_temperature;BMP_pressure;BME280_temperature;BME280_humidity;BME280_pressure;Samples;Min_cycle;Max_cycle;Signal;HPM_P1;HPM_P2
2023/08/06 00:01:21;;;;;;;10.88;9.65;;;;;;;-140.66;100.00;55571.53;5135143;28;20106;-73
2023/08/06 00:04:06;;;;;;;13.27;10.18;;;;;;;-140.66;100.00;55571.53;5134359;28;20027;-74
2023/08/06 00:06:52;;;;;;;14.27;10.35;;;;;;;-140.66;100.00;55571.53;5134907;28;20464;-74
2023/08/06 00:09:38;;;;;;;12.30;10.45;;;;;;;-140.66;100.00;55571.53;5134012;28;20360;-73
2023/08/06 00:12:24;;;;;;;14.13;11.07;;;;;;;-140.66;100.00;55571.53;5134484;28;20304;-74
2023/08/06 00:15:11;;;;;;;14.20;12.05;;;;;;;-140.66;100.00;55571.53;5133942;28;20023;-74
2023/08/06 00:17:56;;;;;;;14.35;11.57;;;;;;;-140.66;100.00;55571.53;5134946;28;20107;-74
2023/08/06 00:20:42;;;;;;;15.30;12.52;;;;;;;-140.66;100.00;55571.53;5134881;28;20127;-73
2023/08/06 00:23:28;;;;;;;15.57;11.35;;;;;;;-140.66;100.00;55571.53;5135222;28;20015;-73
2023/08/06 00:26:13;;;;;;;14.35;10.90;;;;;;;-140.66;100.00;55571.53;5136285;28;20023;-73
2023/08/06 00:28:59;;;;;;;13.88;11.45;;;;;;;-140.66;100.00;55571.53;5134139;28;20012;-74
2023/08/06 00:31:45;;;;;;;15.38;11.05;;;;;;;-140.66;100.00;55571.53;5136245;27;20449;-73
2023/08/06 00:34:30;;;;;;;13.45;10.85;;;;;;;-140.66;100.00;55571.53;5138558;27;20466;-73
2023/08/06 00:37:17;;;;;;;13.95;11.65;;;;;;;-140.66;100.00;55571.53;5138757;27;20042;-74
2023/08/06 00:40:03;;;;;;;13.15;11.75;;;;;;;-140.66;100.00;55571.53;5137683;27;20038;-74
2023/08/06 00:42:49;;;;;;;12.80;11.43;;;;;;;-140.66;100.00;55571.53;5138367;27;20463;-74
2023/08/06 00:45:36;;;;;;;12.70;11.18;;;;;;;-140.66;100.00;55571.53;5138505;27;20034;-74
2023/08/06 00:48:22;;;;;;;17.10;12.82;;;;;;;-140.66;100.00;55571.53;5137389;27;20056;-72
2023/08/06 00:51:10;;;;;;;14.70;12.32;;;;;;;-140.66;100.00;55571.53;5137908;27;20043;-73
2023/08/06 00:53:55;;;;;;;16.38;12.52;;;;;;;-140.66;100.00;55571.53;5138754;27;20030;-74
2023/08/06 00:56:42;;;;;;;17.75;11.98;;;;;;;-140.66;100.00;55571.53;5137856;27;20034;-74
2023/08/06 00:59:29;;;;;;;15.65;12.00;;;;;;;-140.66;100.00;55571.53;5138166;27;20023;-73
2023/08/06 01:02:15;;;;;;;15.48;11.80;;;;;;;-140.66;100.00;55571.53;5138257;27;20031;-74
2023/08/06 01:05:01;;;;;;;16.60;11.80;;;;;;;-140.66;100.00;55571.53;5137836;27;20113;-74
2023/08/06 01:07:49;;;;;;;18.27;12.77;;;;;;;-140.66;100.00;55571.53;5138588;27;20088;-74
2023/08/06 01:10:54;;;;;;;18.75;12.48;;;;;;;-140.66;100.00;55571.53;5138147;27;20024;-74
2023/08/06 01:13:46;;;;;;;16.85;12.07;;;;;;;-140.66;100.00;55571.53;5137409;27;20160;-74
2023/08/06 01:16:33;;;;;;;20.52;12.32;;;;;;;-140.66;100.00;55571.53;5138216;27;20031;-73
2023/08/06 01:19:19;;;;;;;15.23;12.10;;;;;;;-140.66;100.00;55571.53;5137478;27;20027;-74
2023/08/06 01:22:05;;;;;;;17.92;12.30;;;;;;;-140.66;100.00;55571.53;5137592;27;20341;-73
2023/08/06 01:24:51;;;;;;;15.93;12.05;;;;;;;-140.66;100.00;55571.53;5137991;27;20121;-74
2023/08/06 01:27:48;;;;;;;14.93;11.07;;;;;;;-140.66;100.00;55571.53;5136392;27;20015;-73
2023/08/06 01:30:40;;;;;;;15.88;12.15;;;;;;;-140.66;100.00;55571.53;5137419;27;20176;-72
2023/08/06 01:33:28;;;;;;;16.58;11.80;;;;;;;-140.66;100.00;55571.53;5137496;27;20042;-73
2023/08/06 01:36:18;;;;;;;13.93;11.57;;;;;;;-140.66;100.00;55571.53;5137717;27;20023;-73
2023/08/06 01:39:05;;;;;;;12.68;11.38;;;;;;;-140.66;100.00;55571.53;5137735;27;20019;-73
2023/08/06 01:41:50;;;;;;;17.75;12.55;;;;;;;-140.66;100.00;55571.53;5137274;27;20020;-74
2023/08/06 01:44:36;;;;;;;14.63;11.57;;;;;;;-140.66;100.00;55571.53;5137470;27;20027;-73
2023/08/06 01:47:22;;;;;;;14.55;11.65;;;;;;;-140.66;100.00;55571.53;5137194;27;20381;-73
2023/08/06 01:50:08;;;;;;;13.88;11.65;;;;;;;-140.66;100.00;55571.53;5137218;27;20057;-74
2023/08/06 01:52:54;;;;;;;14.35;11.45;;;;;;;-140.66;100.00;55571.53;5136997;27;20042;-73
2023/08/06 01:55:39;;;;;;;13.25;10.55;;;;;;;-140.66;100.00;55571.53;5135897;27;20088;-74
2023/08/06 01:58:25;;;;;;;15.25;10.15;;;;;;;-140.66;100.00;55571.53;5136585;27;20023;-74
2023/08/06 02:01:11;;;;;;;10.73;9.20;;;;;;;-140.66;100.00;55571.53;5136383;27;20038;-73
2023/08/06 02:03:56;;;;;;;11.88;10.27;;;;;;;-140.66;100.00;55571.53;5137103;27;20027;-73
2023/08/06 02:06:42;;;;;;;11.95;9.07;;;;;;;-140.66;100.00;55571.53;5137007;27;20034;-74
2023/08/06 02:09:28;;;;;;;12.48;9.70;;;;;;;-140.66;100.00;55571.53;5136611;27;20066;-73
2023/08/06 02:12:13;;;;;;;14.77;8.80;;;;;;;-140.66;100.00;55571.53;5136294;27;20108;-74
2023/08/06 02:14:59;;;;;;;9.60;8.55;;;;;;;-140.66;100.00;55571.53;5137199;27;20020;-73
2023/08/06 02:17:45;;;;;;;10.82;8.40;;;;;;;-140.66;100.00;55571.53;5136016;27;20023;-73
2023/08/06 02:20:30;;;;;;;10.00;7.43;;;;;;;-140.66;100.00;55571.53;5135562;27;20027;-73
2023/08/06 02:23:16;;;;;;;9.70;6.50;;;;;;;-140.66;100.00;55571.53;5136161;27;20042;-73
2023/08/06 02:26:04;;;;;;;11.55;6.05;;;;;;;-140.66;100.00;55571.53;5135921;27;20064;-73
2023/08/06 02:28:49;;;;;;;11.95;4.88;;;;;;;-140.66;100.00;55571.53;5135967;27;20059;-73
2023/08/06 02:31:35;;;;;;;7.10;4.85;;;;;;;-140.66;100.00;55571.53;5136074;27;20027;-74
2023/08/06 02:34:21;;;;;;;8.18;4.97;;;;;;;-140.66;100.00;55571.53;5137206;27;20036;-73
2023/08/06 02:37:06;;;;;;;7.13;5.00;;;;;;;-140.66;100.00;55571.53;5135085;27;20027;-73
2023/08/06 02:39:52;;;;;;;6.25;4.60;;;;;;;-140.66;100.00;55571.53;5135679;27;20448;-73
2023/08/06 02:42:38;;;;;;;12.02;4.50;;;;;;;-140.66;100.00;55571.53;5135821;27;20136;-72
2023/08/06 02:45:23;;;;;;;4.90;3.80;;;;;;;-140.66;100.00;55571.53;5135236;27;20035;-73
2023/08/06 02:48:10;;;;;;;6.85;3.70;;;;;;;-140.66;100.00;55571.53;5135153;27;20050;-73
2023/08/06 02:50:59;;;;;;;14.35;4.10;;;;;;;-140.66;100.00;55571.53;5136350;27;20027;-73
2023/08/06 02:53:45;;;;;;;9.13;3.63;;;;;;;-140.66;100.00;55571.53;5135938;27;20519;-73
2023/08/06 02:56:31;;;;;;;10.88;4.30;;;;;;;-140.66;100.00;55571.53;5134400;27;20467;-73
2023/08/06 02:59:17;;;;;;;5.53;3.40;;;;;;;-140.66;100.00;55571.53;5135141;27;20088;-73
2023/08/06 03:02:03;;;;;;;6.10;3.50;;;;;;;-140.66;100.00;55571.53;5136414;27;20023;-72
2023/08/06 03:04:49;;;;;;;7.03;3.10;;;;;;;-140.66;100.00;55571.53;5135128;27;20099;-73
2023/08/06 03:07:36;;;;;;;7.20;3.40;;;;;;;-140.66;100.00;55571.53;5134602;27;20051;-73
2023/08/06 03:10:21;;;;;;;8.30;3.30;;;;;;;-140.66;100.00;55571.53;5135159;27;20023;-73
2023/08/06 03:13:08;;;;;;;5.18;3.08;;;;;;;-140.66;100.00;55571.53;5134894;27;20095;-72
2023/08/06 03:15:58;;;;;;;5.30;3.47;;;;;;;-140.66;100.00;55571.53;5136069;27;20034;-73
2023/08/06 03:18:44;;;;;;;7.25;3.13;;;;;;;-140.66;100.00;55571.53;5135687;27;20043;-73
2023/08/06 03:21:30;;;;;;;8.30;3.08;;;;;;;-140.66;100.00;55571.53;5136422;27;20023;-73
2023/08/06 03:24:15;;;;;;;5.30;2.90;;;;;;;-140.66;100.00;55571.53;5134694;27;20113;-74
2023/08/06 03:27:01;;;;;;;6.47;3.10;;;;;;;-140.66;100.00;55571.53;5145033;27;20030;-72
2023/08/06 03:29:50;;;;;;;5.28;3.15;;;;;;;-140.66;100.00;55571.53;5143691;27;20030;-74
2023/08/06 03:32:35;;;;;;;6.40;3.20;;;;;;;-140.66;100.00;55571.53;5134304;27;20027;-72
2023/08/06 03:35:21;;;;;;;7.25;3.17;;;;;;;-140.66;100.00;55571.53;5134559;27;20102;-74
2023/08/06 03:38:07;;;;;;;3.92;2.88;;;;;;;-140.66;100.00;55571.53;5134502;27;20110;-73
2023/08/06 03:40:53;;;;;;;4.78;2.80;;;;;;;-140.66;100.00;55571.53;5134754;27;20037;-74
2023/08/06 03:43:38;;;;;;;5.03;3.63;;;;;;;-140.66;100.00;55571.53;5133987;27;20064;-71
2023/08/06 03:46:25;;;;;;;6.85;3.10;;;;;;;-140.66;100.00;55571.53;5133672;27;20055;-74
2023/08/06 03:49:11;;;;;;;3.70;2.88;;;;;;;-140.66;100.00;55571.53;5135771;27;20451;-73
2023/08/06 03:51:57;;;;;;;4.05;2.75;;;;;;;-140.66;100.00;55571.53;5134289;27;20404;-73
2023/08/06 03:54:43;;;;;;;4.72;3.00;;;;;;;-140.66;100.00;55571.53;5134814;28;20456;-73
2023/08/06 03:57:28;;;;;;;3.33;2.80;;;;;;;-140.66;100.00;55571.53;5145836;28;20023;-73
2023/08/06 04:00:14;;;;;;;4.15;3.00;;;;;;;-140.66;100.00;55571.53;5136947;28;20035;-73
2023/08/06 04:03:00;;;;;;;4.63;2.95;;;;;;;-140.66;100.00;55571.53;5134597;28;20027;-73
2023/08/06 04:05:45;;;;;;;4.75;2.90;;;;;;;-140.66;100.00;55571.53;5134407;27;20027;-74
2023/08/06 04:08:31;;;;;;;4.72;2.58;;;;;;;-140.66;100.00;55571.53;5138206;27;20022;-74
2023/08/06 04:11:17;;;;;;;5.15;2.70;;;;;;;-140.66;100.00;55571.53;5139178;27;20019;-72
2023/08/06 04:14:03;;;;;;;4.50;2.85;;;;;;;-140.66;100.00;55571.53;5138961;27;20027;-73
2023/08/06 04:16:49;;;;;;;4.32;2.90;;;;;;;-140.66;100.00;55571.53;5138332;27;20027;-72
2023/08/06 04:19:34;;;;;;;4.40;2.85;;;;;;;-140.66;100.00;55571.53;5138999;27;20022;-73
2023/08/06 04:22:21;;;;;;;5.50;2.75;;;;;;;-140.66;100.00;55571.53;5139333;27;20034;-73
2023/08/06 04:25:07;;;;;;;6.07;2.70;;;;;;;-140.66;100.00;55571.53;5138434;27;20079;-73
2023/08/06 04:27:53;;;;;;;5.10;2.90;;;;;;;-140.66;100.00;55571.53;5138222;27;20102;-73
2023/08/06 04:30:39;;;;;;;4.18;2.65;;;;;;;-140.66;100.00;55571.53;5138152;27;20023;-73
2023/08/06 04:33:24;;;;;;;7.10;2.80;;;;;;;-140.66;100.00;55571.53;5138056;27;20090;-72
2023/08/06 04:36:10;;;;;;;5.32;2.88;;;;;;;-140.66;100.00;55571.53;5137990;27;20031;-72
2023/08/06 04:38:56;;;;;;;4.25;2.60;;;;;;;-140.66;100.00;55571.53;5137705;27;20030;-74
2023/08/06 04:41:41;;;;;;;3.60;2.78;;;;;;;-140.66;100.00;55571.53;5139296;27;20085;-73
2023/08/06 04:44:27;;;;;;;3.95;2.58;;;;;;;-140.66;100.00;55571.53;5136606;27;20360;-73
2023/08/06 04:47:13;;;;;;;7.47;2.60;;;;;;;-140.66;100.00;55571.53;5137251;27;20058;-73
2023/08/06 04:49:59;;;;;;;2.83;2.45;;;;;;;-140.66;100.00;55571.53;5137617;27;20117;-73
2023/08/06 04:52:44;;;;;;;3.42;2.70;;;;;;;-140.66;100.00;55571.53;5138517;27;20436;-74
2023/08/06 04:55:30;;;;;;;3.85;2.70;;;;;;;-140.66;100.00;55571.53;5137155;27;20027;-73
2023/08/06 04:58:16;;;;;;;3.90;2.60;;;;;;;-140.66;100.00;55571.53;5137732;27;20023;-73
2023/08/06 05:01:01;;;;;;;2.90;2.50;;;;;;;-140.66;100.00;55571.53;5137796;27;20019;-73
2023/08/06 05:03:47;;;;;;;3.45;2.70;;;;;;;-140.66;100.00;55571.53;5137051;27;20110;-73
2023/08/06 05:06:33;;;;;;;4.15;2.70;;;;;;;-140.66;100.00;55571.53;5137258;27;20026;-74
2023/08/06 05:09:19;;;;;;;5.38;2.50;;;;;;;-140.66;100.00;55571.53;5137853;27;20106;-74
2023/08/06 05:12:06;;;;;;;3.35;3.00;;;;;;;-140.66;100.00;55571.53;5137620;27;20031;-73
2023/08/06 05:14:51;;;;;;;3.30;2.53;;;;;;;-140.66;100.00;55571.53;5137759;27;20023;-73
2023/08/06 05:17:37;;;;;;;3.80;2.50;;;;;;;-140.66;100.00;55571.53;5136228;27;20023;-74
2023/08/06 05:20:23;;;;;;;3.42;2.75;;;;;;;-140.66;100.00;55571.53;5137699;27;20449;-74
2023/08/06 05:23:09;;;;;;;2.75;2.42;;;;;;;-140.66;100.00;55571.53;5136971;27;20027;-73
2023/08/06 05:25:54;;;;;;;5.57;2.92;;;;;;;-140.66;100.00;55571.53;5137325;27;20448;-73
2023/08/06 05:28:41;;;;;;;2.92;2.60;;;;;;;-140.66;100.00;55571.53;5137071;27;20098;-74
2023/08/06 05:31:28;;;;;;;3.10;2.70;;;;;;;-140.66;100.00;55571.53;5138508;27;20119;-74
2023/08/06 05:34:14;;;;;;;3.38;2.30;;;;;;;-140.66;100.00;55571.53;5136645;27;20126;-73
2023/08/06 05:37:00;;;;;;;3.92;2.35;;;;;;;-140.66;100.00;55571.53;5137084;27;20015;-73
2023/08/06 05:39:45;;;;;;;2.67;2.40;;;;;;;-140.66;100.00;55571.53;5136853;27;20027;-73
2023/08/06 05:42:31;;;;;;;2.80;2.13;;;;;;;-140.66;100.00;55571.53;5137473;27;20447;-72
2023/08/06 05:45:17;;;;;;;3.65;2.28;;;;;;;-140.66;100.00;55571.53;5137463;27;20393;-74
2023/08/06 05:48:03;;;;;;;5.63;2.40;;;;;;;-140.66;100.00;55571.53;5137476;27;20039;-73
2023/08/06 05:50:48;;;;;;;3.85;2.40;;;;;;;-140.66;100.00;55571.53;5136830;27;20099;-74
2023/08/06 05:53:34;;;;;;;3.35;2.42;;;;;;;-140.66;100.00;55571.53;5136626;27;20023;-73
2023/08/06 05:56:20;;;;;;;2.78;2.20;;;;;;;-140.66;100.00;55571.53;5135657;27;20023;-73
2023/08/06 05:59:06;;;;;;;3.33;2.45;;;;;;;-140.66;100.00;55571.53;5136480;27;20024;-73
2023/08/06 06:01:51;;;;;;;12.73;2.10;;;;;;;-140.66;100.00;55571.53;5136328;27;20416;-74
2023/08/06 06:04:37;;;;;;;3.80;2.38;;;;;;;-140.66;100.00;55571.53;5136247;27;20037;-75
2023/08/06 06:07:23;;;;;;;3.42;2.22;;;;;;;-140.66;100.00;55571.53;5136272;27;20023;-74
2023/08/06 06:10:09;;;;;;;8.27;2.75;;;;;;;-140.66;100.00;55571.53;5136795;27;20057;-73
2023/08/06 06:12:55;;;;;;;2.40;2.00;;;;;;;-140.66;100.00;55571.53;5136488;27;20448;-74
2023/08/06 06:15:40;;;;;;;3.72;2.28;;;;;;;-140.66;100.00;55571.53;5136205;27;20027;-74
2023/08/06 06:18:26;;;;;;;5.25;3.72;;;;;;;-140.66;100.00;55571.53;5137129;27;20345;-74
2023/08/06 06:21:12;;;;;;;2.95;2.30;;;;;;;-140.66;100.00;55571.53;5135642;27;20031;-73
2023/08/06 06:23:58;;;;;;;5.85;2.15;;;;;;;-140.66;100.00;55571.53;5135806;27;20026;-75
2023/08/06 06:26:43;;;;;;;3.95;2.28;;;;;;;-140.66;100.00;55571.53;5136759;27;20035;-74
2023/08/06 06:29:29;;;;;;;5.35;2.03;;;;;;;-140.66;100.00;55571.53;5135486;27;20110;-75
2023/08/06 06:32:15;;;;;;;4.03;2.15;;;;;;;-140.66;100.00;55571.53;5135636;27;20031;-72
2023/08/06 06:35:01;;;;;;;4.05;2.30;;;;;;;-140.66;100.00;55571.53;5136077;27;20023;-73
2023/08/06 06:37:46;;;;;;;4.50;2.22;;;;;;;-140.66;100.00;55571.53;5135457;27;20487;-74
2023/08/06 06:40:33;;;;;;;3.58;2.13;;;;;;;-140.66;100.00;55571.53;5135775;27;20455;-74
2023/08/06 06:43:18;;;;;;;4.70;2.40;;;;;;;-140.66;100.00;55571.53;5136675;27;20022;-76
2023/08/06 06:46:04;;;;;;;6.57;2.45;;;;;;;-140.66;100.00;55571.53;5136237;27;20019;-74
2023/08/06 06:48:50;;;;;;;2.30;2.00;;;;;;;-140.66;100.00;55571.53;5135124;27;20081;-74
2023/08/06 06:51:35;;;;;;;7.97;2.30;;;;;;;-140.66;100.00;55571.53;5135212;27;20026;-75
2023/08/06 06:54:21;;;;;;;4.65;2.10;;;;;;;-140.66;100.00;55571.53;5135220;27;20030;-74
2023/08/06 06:57:07;;;;;;;5.50;2.10;;;;;;;-140.66;100.00;55571.53;5135116;27;20080;-74
2023/08/06 06:59:53;;;;;;;2.30;2.10;;;;;;;-140.66;100.00;55571.53;5134414;27;20050;-75
2023/08/06 07:02:39;;;;;;;3.28;2.50;;;;;;;-140.66;100.00;55571.53;5136666;27;20035;-73
2023/08/06 07:05:25;;;;;;;4.18;2.03;;;;;;;-140.66;100.00;55571.53;5135502;27;20394;-74
2023/08/06 07:08:11;;;;;;;6.35;2.40;;;;;;;-140.66;100.00;55571.53;5134976;27;20019;-73
2023/08/06 07:11:02;;;;;;;5.28;2.60;;;;;;;-140.66;100.00;55571.53;5135585;27;20023;-74
2023/08/06 07:13:50;;;;;;;3.33;2.10;;;;;;;-140.66;100.00;55571.53;5134969;27;20023;-74
2023/08/06 07:16:35;;;;;;;6.50;2.60;;;;;;;-140.66;100.00;55571.53;5134643;27;20027;-74
2023/08/06 07:19:21;;;;;;;4.20;2.47;;;;;;;-140.66;100.00;55571.53;5135992;27;20546;-74
2023/08/06 07:22:07;;;;;;;3.15;2.47;;;;;;;-140.66;100.00;55571.53;5134727;27;20416;-74
2023/08/06 07:24:53;;;;;;;4.10;2.50;;;;;;;-140.66;100.00;55571.53;5134589;27;20045;-75
2023/08/06 07:27:39;;;;;;;2.88;2.45;;;;;;;-140.66;100.00;55571.53;5135249;27;20361;-74
2023/08/06 07:30:24;;;;;;;3.67;2.67;;;;;;;-140.66;100.00;55571.53;5135001;27;20062;-74
2023/08/06 07:33:10;;;;;;;4.85;2.50;;;;;;;-140.66;100.00;55571.53;5134872;27;20136;-75
2023/08/06 07:36:55;;;;;;;3.22;2.28;;;;;;;-140.66;100.00;55571.53;5135194;27;20110;-75
2023/08/06 07:40:39;;;;;;;3.92;2.28;;;;;;;-140.66;100.00;55571.53;5133589;27;20032;-74
2023/08/06 07:44:23;;;;;;;5.03;2.47;;;;;;;-140.66;100.00;55571.53;5134808;27;20027;-74
2023/08/06 07:48:07;;;;;;;6.07;2.60;;;;;;;-140.66;100.00;55571.53;5121080;27;20111;-73
2023/08/06 07:51:55;;;;;;;2.75;2.28;;;;;;;-140.66;100.00;55571.53;5137850;27;20406;-74
2023/08/06 07:55:39;;;;;;;4.13;2.22;;;;;;;-140.66;100.00;55571.53;5149901;27;20080;-74
2023/08/06 07:59:24;;;;;;;3.08;2.20;;;;;;;-140.66;100.00;55571.53;5135837;28;20028;-75
2023/08/06 08:03:08;;;;;;;7.20;2.53;;;;;;;-140.66;100.00;55571.53;5134885;28;20038;-74
2023/08/06 08:06:53;;;;;;;4.43;2.63;;;;;;;-140.66;100.00;55571.53;5134254;28;20066;-74
2023/08/06 08:10:38;;;;;;;8.00;2.60;;;;;;;-140.66;100.00;55571.53;5134405;28;20023;-74
2023/08/06 08:14:23;;;;;;;10.20;2.60;;;;;;;-140.66;100.00;55571.53;5134627;28;20041;-74
2023/08/06 08:18:07;;;;;;;3.17;2.45;;;;;;;-140.66;100.00;55571.53;5137719;28;20023;-73
2023/08/06 08:21:52;;;;;;;6.70;2.80;;;;;;;-140.66;100.00;55571.53;5150533;28;20030;-74
2023/08/06 08:25:36;;;;;;;5.20;2.78;;;;;;;-140.66;100.00;55571.53;5134757;28;20463;-74
2023/08/06 08:29:21;;;;;;;4.25;2.65;;;;;;;-140.66;100.00;55571.53;5134544;28;20024;-74
2023/08/06 08:33:05;;;;;;;5.15;2.78;;;;;;;-140.66;100.00;55571.53;5133873;28;20031;-74
2023/08/06 08:36:49;;;;;;;6.63;2.63;;;;;;;-140.66;100.00;55571.53;5133949;28;20103;-74
2023/08/06 08:40:39;;;;;;;4.25;2.70;;;;;;;-140.66;100.00;55571.53;5135091;28;20110;-74
2023/08/06 08:44:28;;;;;;;4.47;2.47;;;;;;;-140.66;100.00;55571.53;5133493;28;20114;-74
2023/08/06 08:48:14;;;;;;;5.95;2.55;;;;;;;-140.66;100.00;55571.53;5134750;28;20047;-74
2023/08/06 08:51:59;;;;;;;4.85;2.70;;;;;;;-140.66;100.00;55571.53;5133901;28;20033;-73
2023/08/06 08:55:47;;;;;;;4.00;2.95;;;;;;;-140.66;100.00;55571.53;5138146;27;20019;-74
2023/08/06 08:59:33;;;;;;;5.32;3.20;;;;;;;-140.66;100.00;55571.53;5137344;27;20027;-74
2023/08/06 09:03:20;;;;;;;9.95;3.80;;;;;;;-140.66;100.00;55571.53;5137705;27;20360;-73
2023/08/06 09:07:05;;;;;;;6.07;4.35;;;;;;;-140.66;100.00;55571.53;5137451;27;20027;-74
2023/08/06 09:10:52;;;;;;;5.78;4.28;;;;;;;-140.66;100.00;55571.53;5137218;27;20020;-76
2023/08/06 09:14:36;;;;;;;5.30;4.35;;;;;;;-140.66;100.00;55571.53;5138819;27;20115;-74
2023/08/06 09:18:27;;;;;;;6.60;4.28;;;;;;;-140.66;100.00;55571.53;5137248;27;20123;-74
2023/08/06 09:22:13;;;;;;;9.10;4.25;;;;;;;-140.66;100.00;55571.53;5138309;27;20041;-75
2023/08/06 09:25:58;;;;;;;5.32;3.72;;;;;;;-140.66;100.00;55571.53;5138169;27;20027;-74
2023/08/06 09:33:49;;;;;;;8.40;5.13;;;;;;;-140.66;100.00;55571.53;5136857;27;20031;-74
2023/08/06 09:37:37;;;;;;;11.05;6.50;;;;;;;-140.66;100.00;55571.53;5137904;27;20031;-75
2023/08/06 09:41:27;;;;;;;10.32;6.60;;;;;;;-140.66;100.00;55571.53;5138702;27;20034;-74
2023/08/06 09:45:15;;;;;;;10.73;6.50;;;;;;;-140.66;100.00;55571.53;5137903;27;20122;-73
2023/08/06 09:49:09;;;;;;;10.27;6.80;;;;;;;-140.66;100.00;55571.53;5137630;27;20369;-73
2023/08/06 09:52:54;;;;;;;8.75;7.15;;;;;;;-140.66;100.00;55571.53;5138194;27;20429;-74
2023/08/06 09:56:39;;;;;;;9.90;6.50;;;;;;;-140.66;100.00;55571.53;5137065;27;20023;-74
2023/08/06 10:00:24;;;;;;;13.13;7.28;;;;;;;-140.66;100.00;55571.53;5135753;27;20038;-73
2023/08/06 10:04:08;;;;;;;10.23;6.82;;;;;;;-140.66;100.00;55571.53;5136852;27;20027;-75
2023/08/06 10:07:53;;;;;;;10.25;7.03;;;;;;;-140.66;100.00;55571.53;5137281;27;20094;-74
2023/08/06 10:11:37;;;;;;;8.65;6.38;;;;;;;-140.66;100.00;55571.53;5136368;27;20031;-73
2023/08/06 10:15:25;;;;;;;8.40;6.50;;;;;;;-140.66;100.00;55571.53;5137817;27;20166;-73
2023/08/06 10:19:12;;;;;;;9.15;6.28;;;;;;;-140.66;100.00;55571.53;5136079;27;20031;-74
2023/08/06 10:23:08;;;;;;;7.95;5.53;;;;;;;-140.66;100.00;55571.53;5135926;27;20088;-72
2023/08/06 10:26:56;;;;;;;7.85;5.43;;;;;;;-140.66;100.00;55571.53;5136902;27;20087;-72
2023/08/06 10:30:41;;;;;;;10.80;5.45;;;;;;;-140.66;100.00;55571.53;5136505;27;20068;-74
2023/08/06 10:35:00;;;;;;;9.80;6.13;;;;;;;-140.66;100.00;55571.53;5135817;27;20448;-74
2023/08/06 10:38:48;;;;;;;12.05;6.13;;;;;;;-140.66;100.00;55571.53;5135186;27;20113;-73
2023/08/06 10:42:32;;;;;;;11.27;6.72;;;;;;;-140.66;100.00;55571.53;5136845;27;20042;-73
2023/08/06 10:46:26;;;;;;;9.50;6.07;;;;;;;-140.66;100.00;55571.53;5135753;27;20345;-74
2023/08/06 10:50:12;;;;;;;8.02;5.75;;;;;;;-140.66;100.00;55571.53;5135741;27;20047;-72
2023/08/06 10:54:02;;;;;;;9.30;5.40;;;;;;;-140.66;100.00;55571.53;5135448;27;20448;-73
2023/08/06 10:57:46;;;;;;;8.07;6.07;;;;;;;-140.66;100.00;55571.53;5135172;27;20027;-74
2023/08/06 11:01:32;;;;;;;6.75;5.40;;;;;;;-140.66;100.00;55571.53;5135622;27;20035;-74
2023/08/06 11:05:17;;;;;;;7.00;5.57;;;;;;;-140.66;100.00;55571.53;5136192;27;20034;-74
2023/08/06 11:09:01;;;;;;;7.53;5.72;;;;;;;-140.66;100.00;55571.53;5135964;27;20023;-74
2023/08/06 11:12:46;;;;;;;7.00;5.20;;;;;;;-140.66;100.00;55571.53;5135370;27;20030;-73
2023/08/06 11:16:30;;;;;;;8.73;5.45;;;;;;;-140.66;100.00;55571.53;5135036;27;20019;-73
2023/08/06 11:20:15;;;;;;;7.18;6.03;;;;;;;-140.66;100.00;55571.53;5135359;27;20106;-74
2023/08/06 11:23:59;;;;;;;6.30;5.68;;;;;;;-140.66;100.00;55571.53;5135726;27;20110;-74
2023/08/06 11:27:43;;;;;;;6.57;5.88;;;;;;;-140.66;100.00;55571.53;5134825;27;20087;-75
2023/08/06 11:31:28;;;;;;;7.60;5.72;;;;;;;-140.66;100.00;55571.53;5135371;27;20048;-74
2023/08/06 11:35:14;;;;;;;6.90;6.20;;;;;;;-140.66;100.00;55571.53;5136077;27;20034;-73
2023/08/06 11:39:02;;;;;;;7.00;6.13;;;;;;;-140.66;100.00;55571.53;5134590;27;20403;-74
2023/08/06 11:42:47;;;;;;;7.35;6.07;;;;;;;-140.66;100.00;55571.53;5135371;27;20042;-74
2023/08/06 11:46:52;;;;;;;7.15;6.45;;;;;;;-140.66;100.00;55571.53;5134532;27;20079;-73
2023/08/06 11:50:40;;;;;;;9.90;6.88;;;;;;;-140.66;100.00;55571.53;5134345;27;20074;-73
2023/08/06 11:54:33;;;;;;;10.80;7.15;;;;;;;-140.66;100.00;55571.53;5136197;27;20422;-74
2023/08/06 11:58:18;;;;;;;9.07;7.70;;;;;;;-140.66;100.00;55571.53;5135142;27;20027;-74
2023/08/06 12:02:07;;;;;;;14.48;7.70;;;;;;;-140.66;100.00;55571.53;5136311;28;20330;-73
2023/08/06 12:05:58;;;;;;;9.65;7.75;;;;;;;-140.66;100.00;55571.53;5136214;28;20033;-73
2023/08/06 12:09:42;;;;;;;8.10;7.22;;;;;;;-140.66;100.00;55571.53;5137066;28;20038;-74
2023/08/06 12:13:26;;;;;;;11.32;7.00;;;;;;;-140.66;100.00;55571.53;5136466;28;20031;-73
2023/08/06 12:17:10;;;;;;;8.15;6.25;;;;;;;-140.66;100.00;55571.53;5137894;28;20055;-73
2023/08/06 12:20:54;;;;;;;6.85;6.22;;;;;;;-140.66;100.00;55571.53;5136735;28;20382;-73
2023/08/06 12:24:40;;;;;;;9.95;6.60;;;;;;;-140.66;100.00;55571.53;5135579;28;20023;-73
2023/08/06 12:28:24;;;;;;;6.30;5.13;;;;;;;-140.66;100.00;55571.53;5136794;27;20364;-74
2023/08/06 12:32:08;;;;;;;6.82;5.57;;;;;;;-140.66;100.00;55571.53;5138858;27;20023;-75
2023/08/06 12:35:54;;;;;;;6.13;5.45;;;;;;;-140.66;100.00;55571.53;5137397;27;20027;-74
2023/08/06 12:39:39;;;;;;;6.18;5.55;;;;;;;-140.66;100.00;55571.53;5137443;27;20383;-74
2023/08/06 12:43:23;;;;;;;7.22;5.68;;;;;;;-140.66;100.00;55571.53;5137910;27;20023;-75
2023/08/06 12:47:07;;;;;;;6.30;5.47;;;;;;;-140.66;100.00;55571.53;5137804;27;20111;-73
2023/08/06 12:50:51;;;;;;;6.05;5.32;;;;;;;-140.66;100.00;55571.53;5136709;27;20517;-74
2023/08/06 12:54:38;;;;;;;7.10;5.50;;;;;;;-140.66;100.00;55571.53;5137929;27;20118;-74
2023/08/06 12:58:23;;;;;;;5.63;5.10;;;;;;;-140.66;100.00;55571.53;5137629;27;20034;-73
2023/08/06 13:02:07;;;;;;;5.95;4.80;;;;;;;-140.66;100.00;55571.53;5137475;27;20088;-74
2023/08/06 13:05:51;;;;;;;5.88;5.00;;;;;;;-140.66;100.00;55571.53;5138550;27;20357;-73
2023/08/06 13:09:35;;;;;;;6.47;5.57;;;;;;;-140.66;100.00;55571.53;5137568;27;20033;-74
2023/08/06 13:13:20;;;;;;;7.72;5.78;;;;;;;-140.66;100.00;55571.53;5138841;27;20050;-74
2023/08/06 13:17:06;;;;;;;7.82;5.57;;;;;;;-140.66;100.00;55571.53;5137509;27;20510;-74
2023/08/06 13:20:52;;;;;;;8.73;5.22;;;;;;;-140.66;100.00;55571.53;5137431;27;20359;-75
2023/08/06 13:24:37;;;;;;;5.07;4.55;;;;;;;-140.66;100.00;55571.53;5138067;27;20079;-73
2023/08/06 13:28:21;;;;;;;5.00;4.50;;;;;;;-140.66;100.00;55571.53;5137527;27;20023;-74
2023/08/06 13:32:05;;;;;;;4.43;4.03;;;;;;;-140.66;100.00;55571.53;5137544;27;20030;-74
2023/08/06 13:35:50;;;;;;;4.10;3.70;;;;;;;-140.66;100.00;55571.53;5136940;27;20110;-74
2023/08/06 13:39:34;;;;;;;4.38;3.88;;;;;;;-140.66;100.00;55571.53;5136258;27;20106;-73
2023/08/06 13:43:19;;;;;;;4.75;4.25;;;;;;;-140.66;100.00;55571.53;5137364;27;20114;-74
2023/08/06 13:47:03;;;;;;;5.53;4.43;;;;;;;-140.66;100.00;55571.53;5137187;27;20038;-73
2023/08/06 13:50:47;;;;;;;5.05;4.35;;;;;;;-140.66;100.00;55571.53;5137401;27;20380;-73
2023/08/06 13:54:32;;;;;;;6.45;3.90;;;;;;;-140.66;100.00;55571.53;5136825;27;20019;-74
2023/08/06 13:58:16;;;;;;;5.70;4.22;;;;;;;-140.66;100.00;55571.53;5137313;27;20406;-75
2023/08/06 14:02:00;;;;;;;5.05;4.55;;;;;;;-140.66;100.00;55571.53;5136737;27;20042;-75
2023/08/06 14:05:45;;;;;;;6.63;4.95;;;;;;;-140.66;100.00;55571.53;5136507;27;20368;-74
2023/08/06 14:09:29;;;;;;;6.50;4.25;;;;;;;-140.66;100.00;55571.53;5136923;27;20034;-74
2023/08/06 14:13:13;;;;;;;4.28;3.88;;;;;;;-140.66;100.00;55571.53;5137646;27;20050;-74
2023/08/06 14:16:57;;;;;;;5.43;4.07;;;;;;;-140.66;100.00;55571.53;5136524;27;20452;-74
2023/08/06 14:20:42;;;;;;;4.20;3.80;;;;;;;-140.66;100.00;55571.53;5135941;27;20015;-74
2023/08/06 14:24:26;;;;;;;4.10;3.70;;;;;;;-140.66;100.00;55571.53;5137350;27;20356;-74